Time;durP1;ratioP1;P1;durP2;ratioP2;P2;SDS_P1;SDS_P2;PMS_P1;PMS_P2;Temp;Humidity;BMP_temperature;BMP_pressure;BME280_temperature;BME280_humidity;BME280_pressure;Samples;Min_cycle;Max_cycle;Signal;HPM_P1;HPM_P2
2021/10/02 00:45:20;;;;;;;;;;;;;;;;;;5049400;28;19992;-71
2021/10/02 00:47:46;;;;;;;;;;;;;;;;;;5049427;28;19908;-68
2021/10/02 00:50:12;;;;;;;;;;;;;;;;;;5048868;28;19905;-68
2021/10/02 00:52:38;;;;;;;;;;;;;;;;;;5049026;28;19923;-67
2021/10/02 00:55:04;;;;;;;;;;;;;;;;;;5049193;28;19912;-68
2021/10/02 00:57:30;;;;;;;;;;;;;;;;;;5048870;28;19905;-67
2021/10/02 00:59:56;;;;;;;;;;;;;;;;;;5048690;28;19905;-67
2021/10/02 01:02:22;;;;;;;;;;;;;;;;;;5047638;28;19920;-69
2021/10/02 01:04:48;;;;;;;;;;;;;;;;;;5049066;28;19928;-71
2021/10/02 01:07:14;;;;;;;;;;;;;;;;;;5048951;28;19905;-68
2021/10/02 01:09:40;;;;;;;;;;;;;;;;;;5048823;28;19944;-68
2021/10/02 01:12:06;;;;;;;;;;;;;;;;;;5048754;28;19905;-68
2021/10/02 01:14:31;;;;;;;;;;;;;;;;;;5048851;28;19905;-68
2021/10/02 01:16:57;;;;;;;;;;;;;;;;;;5048675;28;19905;-67
2021/10/02 01:19:24;;;;;;;;;;;;;;;;;;5048825;28;19927;-67
2021/10/02 01:21:49;;;;;;;;;;;;;;;;;;5048665;28;20278;-67
2021/10/02 01:24:15;;;;;;;;;;;;;;;;;;5048647;28;19968;-68
2021/10/02 01:26:42;;;;;;;;;;;;;;;;;;5048416;28;19905;-67
2021/10/02 01:29:08;;;;;;;;;;;;;;;;;;5048483;28;19905;-69
2021/10/02 01:31:47;;;;;;;;;;;;;;;;;;5048441;28;19912;-67
2021/10/02 01:34:17;;;;;;;;;;;;;;;;;;5048532;28;20442;-68
2021/10/02 01:47:55;;;;;;;;;;;;;;;;;;5048017;28;19912;-70
2021/10/02 01:50:21;;;;;;;;;;;;;;;;;;5048121;28;20327;-68
2021/10/02 01:52:47;;;;;;;;;;;;;;;;;;5047781;28;19912;-69
2021/10/02 01:55:13;;;;;;;;;;;;;;;;;;5047905;28;19915;-68
2021/10/02 01:57:39;;;;;;;;;;;;;;;;;;5048101;28;19912;-67
2021/10/02 02:00:05;;;;;;;;;;;;;;;;;;5047904;28;19956;-68
2021/10/02 02:02:31;;;;;;;;;;;;;;;;;;5046505;28;19905;-67
2021/10/02 02:04:57;;;;;;;;;;;;;;;;;;5047732;28;19909;-68
2021/10/02 02:07:23;;;;;;;;;;;;;;;;;;5047640;28;19905;-68
2021/10/02 02:09:49;;;;;;;;;;;;;;;;;;5046727;28;19905;-69
2021/10/02 02:12:15;;;;;;;;;;;;;;;;;;5047615;28;19944;-68
2021/10/02 02:14:41;;;;;;;;;;;;;;;;;;5047917;28;19905;-68
2021/10/02 02:17:07;;;;;;;;;;;;;;;;;;5047796;28;19917;-70
2021/10/02 02:19:33;;;;;;;;;;;;;;;;;;5047571;28;19972;-68
2021/10/02 02:21:58;;;;;;;;;;;;;;;;;;5047650;28;19906;-67
2021/10/02 02:24:24;;;;;;;;;;;;;;;;;;5047512;28;19905;-67
2021/10/02 02:26:50;;;;;;;;;;;;;;;;;;5047530;28;19912;-67
2021/10/02 02:29:16;;;;;;;;;;;;;;;;;;5047472;28;19905;-68
2021/10/02 02:31:42;;;;;;;;;;;;;;;;;;5047577;28;20004;-68
2021/10/02 02:34:11;;;;;;;;;;;;;;;;;;5047440;28;19909;-68
2021/10/02 02:36:36;;;;;;;;;;;;;;;;;;5047463;28;20298;-68
2021/10/02 02:39:02;;;;;;;;;;;;;;;;;;5047167;28;19905;-71
2021/10/02 02:41:28;;;;;;;;;;;;;;;;;;5047116;28;20004;-68
2021/10/02 02:43:54;;;;;;;;;;;;;;;;;;5046754;28;19925;-72
2021/10/02 02:46:22;;;;;;;;;;;;;;;;;;5046006;28;19968;-68
2021/10/02 02:48:48;;;;;;;;;;;;;;;;;;5047076;28;19912;-68
2021/10/02 02:51:14;;;;;;;;;;;;;;;;;;5047048;28;19996;-68
2021/10/02 02:53:41;;;;;;;;;;;;;;;;;;5047308;28;19909;-68
2021/10/02 02:56:07;;;;;;;;;;;;;;;;;;5047246;28;19950;-67
2021/10/02 02:58:33;;;;;;;;;;;;;;;;;;5046874;28;19912;-67
2021/10/02 03:01:00;;;;;;;;;;;;;;;;;;5045462;28;19905;-67
2021/10/02 03:03:27;;;;;;;;;;;;;;;;;;5046757;28;19959;-68
2021/10/02 03:05:54;;;;;;;;;;;;;;;;;;5046771;28;19964;-67
2021/10/02 03:08:20;;;;;;;;;;;;;;;;;;5046896;28;19905;-69
2021/10/02 03:10:48;;;;;;;;;;;;;;;;;;5046736;28;19955;-67
2021/10/02 03:13:14;;;;;;;;;;;;;;;;;;5046704;28;19952;-68
2021/10/02 03:15:40;;;;;;;;;;;;;;;;;;5046694;28;19905;-68
2021/10/02 03:18:06;;;;;;;;;;;;;;;;;;5046677;28;19927;-67
2021/10/02 03:20:32;;;;;;;;;;;;;;;;;;5046630;28;19948;-67
2021/10/02 03:22:58;;;;;;;;;;;;;;;;;;5050335;28;19912;-69
2021/10/02 03:25:25;;;;;;;;;;;;;;;;;;5050787;28;19904;-67
2021/10/02 03:27:51;;;;;;;;;;;;;;;;;;5050825;28;19996;-68
2021/10/02 03:30:17;;;;;;;;;;;;;;;;;;5050633;28;19909;-68
2021/10/02 03:32:43;;;;;;;;;;;;;;;;;;5050521;28;19959;-68
2021/10/02 03:35:09;;;;;;;;;;;;;;;;;;5050493;28;19952;-69
2021/10/02 03:37:35;;;;;;;;;;;;;;;;;;5050754;28;20391;-71
2021/10/02 03:40:01;;;;;;;;;;;;;;;;;;5050451;28;19954;-67
2021/10/02 03:42:27;;;;;;;;;;;;;;;;;;5050173;28;19909;-68
2021/10/02 03:44:53;;;;;;;;;;;;;;;;;;5050531;28;19909;-68
2021/10/02 03:47:19;;;;;;;;;;;;;;;;;;5050437;28;19913;-68
2021/10/02 03:49:45;;;;;;;;;;;;;;;;;;5050271;28;19911;-68
2021/10/02 03:52:11;;;;;;;;;;;;;;;;;;5050571;28;19912;-67
2021/10/02 03:54:37;;;;;;;;;;;;;;;;;;5050257;28;19909;-68
2021/10/02 03:57:03;;;;;;;;;;;;;;;;;;5050245;28;19955;-70
2021/10/02 03:59:28;;;;;;;;;;;;;;;;;;5050216;28;19905;-68
2021/10/02 04:01:54;;;;;;;;;;;;;;;;;;5050113;28;19911;-67
2021/10/02 04:04:22;;;;;;;;;;;;;;;;;;5050259;28;19905;-68
2021/10/02 04:06:48;;;;;;;;;;;;;;;;;;5050303;28;19909;-67
2021/10/02 04:09:14;;;;;;;;;;;;;;;;;;5050233;28;19970;-68
2021/10/02 04:11:40;;;;;;;;;;;;;;;;;;5050130;28;19911;-67
2021/10/02 04:14:06;;;;;;;;;;;;;;;;;;5049710;28;20378;-70
2021/10/02 04:16:31;;;;;;;;;;;;;;;;;;5049899;28;19905;-68
2021/10/02 04:18:57;;;;;;;;;;;;;;;;;;5049784;28;19967;-68
2021/10/02 04:21:23;;;;;;;;;;;;;;;;;;5049578;28;19905;-71
2021/10/02 04:23:50;;;;;;;;;;;;;;;;;;5049796;28;19912;-68
2021/10/02 04:26:16;;;;;;;;;;;;;;;;;;5049665;28;19912;-68
2021/10/02 04:28:42;;;;;;;;;;;;;;;;;;5050649;28;19905;-68
2021/10/02 04:31:08;;;;;;;;;;;;;;;;;;5050958;28;19969;-68
2021/10/02 04:33:35;;;;;;;;;;;;;;;;;;5050331;28;20251;-68
2021/10/02 04:36:01;;;;;;;;;;;;;;;;;;5050652;28;19928;-67
2021/10/02 04:38:27;;;;;;;;;;;;;;;;;;5049839;28;19909;-70
2021/10/02 04:40:54;;;;;;;;;;;;;;;;;;5049828;28;19972;-68
2021/10/02 04:43:20;;;;;;;;;;;;;;;;;;5049351;28;19940;-67
2021/10/02 04:45:46;;;;;;;;;;;;;;;;;;5048007;28;19905;-68
2021/10/02 04:48:12;;;;;;;;;;;;;;;;;;5049486;28;20363;-67
2021/10/02 04:50:38;;;;;;;;;;;;;;;;;;5049626;28;19992;-68
2021/10/02 04:53:03;;;;;;;;;;;;;;;;;;5049188;28;19916;-68
2021/10/02 04:55:29;;;;;;;;;;;;;;;;;;5049654;28;19905;-68
2021/10/02 04:57:55;;;;;;;;;;;;;;;;;;5047828;28;19905;-70
2021/10/02 05:00:21;;;;;;;;;;;;;;;;;;5047854;28;19905;-68
2021/10/02 05:02:47;;;;;;;;;;;;;;;;;;5049050;28;19976;-68
2021/10/02 05:05:13;;;;;;;;;;;;;;;;;;5048984;28;19905;-67
2021/10/02 05:07:39;;;;;;;;;;;;;;;;;;5048939;28;19905;-68
2021/10/02 05:10:05;;;;;;;;;;;;;;;;;;5048665;28;19909;-69
2021/10/02 05:12:31;;;;;;;;;;;;;;;;;;5048630;28;20347;-67
2021/10/02 05:14:57;;;;;;;;;;;;;;;;;;5048714;28;19909;-68
2021/10/02 05:17:23;;;;;;;;;;;;;;;;;;5048752;28;20366;-67
2021/10/02 05:19:49;;;;;;;;;;;;;;;;;;5048797;28;19905;-68
2021/10/02 05:22:15;;;;;;;;;;;;;;;;;;5048655;28;19912;-67
2021/10/02 05:24:41;;;;;;;;;;;;;;;;;;5048682;28;19928;-68
2021/10/02 05:27:08;;;;;;;;;;;;;;;;;;5048445;28;19932;-69
2021/10/02 05:29:34;;;;;;;;;;;;;;;;;;5047091;28;19995;-67
2021/10/02 05:32:00;;;;;;;;;;;;;;;;;;5048793;28;19912;-68
2021/10/02 05:34:26;;;;;;;;;;;;;;;;;;5048248;28;19947;-68
2021/10/02 05:36:52;;;;;;;;;;;;;;;;;;5048355;28;19906;-72
2021/10/02 05:39:18;;;;;;;;;;;;;;;;;;5048197;28;19911;-68
2021/10/02 05:41:44;;;;;;;;;;;;;;;;;;5046821;28;19920;-68
2021/10/02 05:44:10;;;;;;;;;;;;;;;;;;5047713;28;19917;-68
2021/10/02 05:46:36;;;;;;;;;;;;;;;;;;5047923;28;19905;-67
2021/10/02 05:49:02;;;;;;;;;;;;;;;;;;5047946;28;19905;-69
2021/10/02 05:51:27;;;;;;;;;;;;;;;;;;5047916;28;19912;-68
2021/10/02 05:53:53;;;;;;;;;;;;;;;;;;5047827;28;19916;-68
2021/10/02 05:56:19;;;;;;;;;;;;;;;;;;5047873;28;19905;-69
2021/10/02 05:58:45;;;;;;;;;;;;;;;;;;5048006;28;19940;-72
2021/10/02 06:01:11;;;;;;;;;;;;;;;;;;5048014;28;19911;-68
2021/10/02 06:03:37;;;;;;;;;;;;;;;;;;5048409;28;19944;-68
2021/10/02 06:06:03;;;;;;;;;;;;;;;;;;5048106;28;19905;-68
2021/10/02 06:08:29;;;;;;;;;;;;;;;;;;5048016;28;19947;-67
2021/10/02 06:10:55;;;;;;;;;;;;;;;;;;5048056;28;19905;-68
2021/10/02 06:13:21;;;;;;;;;;;;;;;;;;5047714;28;19916;-67
2021/10/02 06:15:47;;;;;;;;;;;;;;;;;;5047516;28;19916;-67
2021/10/02 06:18:13;;;;;;;;;;;;;;;;;;5047504;28;20339;-68
2021/10/02 06:20:39;;;;;;;;;;;;;;;;;;5047350;28;19912;-67
2021/10/02 06:23:05;;;;;;;;;;;;;;;;;;5047371;28;19905;-72
2021/10/02 06:25:30;;;;;;;;;;;;;;;;;;5047337;28;19905;-69
2021/10/02 06:27:56;;;;;;;;;;;;;;;;;;5047403;28;19908;-67
2021/10/02 06:30:22;;;;;;;;;;;;;;;;;;5047117;28;19940;-70
2021/10/02 06:32:48;;;;;;;;;;;;;;;;;;5047310;28;19930;-69
2021/10/02 06:35:14;;;;;;;;;;;;;;;;;;5047246;28;19912;-67
2021/10/02 06:37:40;;;;;;;;;;;;;;;;;;5047128;28;19906;-68
2021/10/02 06:40:06;;;;;;;;;;;;;;;;;;5047247;28;19912;-67
2021/10/02 06:42:32;;;;;;;;;;;;;;;;;;5047062;28;20023;-68
2021/10/02 06:44:58;;;;;;;;;;;;;;;;;;5047145;28;19967;-68
2021/10/02 06:47:24;;;;;;;;;;;;;;;;;;5047132;28;19912;-68
2021/10/02 06:49:50;;;;;;;;;;;;;;;;;;5047051;28;19905;-69
2021/10/02 06:52:16;;;;;;;;;;;;;;;;;;5046948;28;20343;-68
2021/10/02 06:54:42;;;;;;;;;;;;;;;;;;5047104;28;19906;-67
2021/10/02 06:57:08;;;;;;;;;;;;;;;;;;5046402;28;19905;-68
2021/10/02 06:59:34;;;;;;;;;;;;;;;;;;5047160;28;19905;-70
2021/10/02 07:02:00;;;;;;;;;;;;;;;;;;5046931;28;19944;-68
2021/10/02 07:04:25;;;;;;;;;;;;;;;;;;5047195;28;19906;-68
2021/10/02 07:06:52;;;;;;;;;;;;;;;;;;5046810;28;19905;-68
2021/10/02 07:09:18;;;;;;;;;;;;;;;;;;5047079;28;20330;-68
2021/10/02 07:11:44;;;;;;;;;;;;;;;;;;5046994;28;19905;-68
2021/10/02 07:14:10;;;;;;;;;;;;;;;;;;5045621;28;19908;-68
2021/10/02 07:16:37;;;;;;;;;;;;;;;;;;5046956;28;19912;-68
2021/10/02 07:19:02;;;;;;;;;;;;;;;;;;5046982;28;19905;-68
2021/10/02 07:21:28;;;;;;;;;;;;;;;;;;5046674;28;19912;-68
2021/10/02 07:23:54;;;;;;;;;;;;;;;;;;5046464;28;19904;-68
2021/10/02 07:26:20;;;;;;;;;;;;;;;;;;5046361;28;19905;-65
2021/10/02 07:28:47;;;;;;;;;;;;;;;;;;5046471;28;19939;-68
2021/10/02 07:31:13;;;;;;;;;;;;;;;;;;5046164;28;19944;-68
2021/10/02 07:33:39;;;;;;;;;;;;;;;;;;5044278;28;19909;-67
2021/10/02 07:36:05;;;;;;;;;;;;;;;;;;5046210;28;19905;-66
2021/10/02 07:38:30;;;;;;;;;;;;;;;;;;5046686;28;19905;-66
2021/10/02 07:40:56;;;;;;;;;;;;;;;;;;5046575;28;20086;-67
2021/10/02 07:43:22;;;;;;;;;;;;;;;;;;5046481;28;19996;-67
2021/10/02 07:45:48;;;;;;;;;;;;;;;;;;5046519;28;19905;-67
2021/10/02 07:48:14;;;;;;;;;;;;;;;;;;5046398;28;19905;-67
2021/10/02 07:50:40;;;;;;;;;;;;;;;;;;5046502;28;19935;-66
2021/10/02 07:53:06;;;;;;;;;;;;;;;;;;5046415;28;19948;-66
2021/10/02 07:55:32;;;;;;;;;;;;;;;;;;5046397;28;19905;-66
2021/10/02 07:57:58;;;;;;;;;;;;;;;;;;5046360;28;19905;-66
2021/10/02 08:00:24;;;;;;;;;;;;;;;;;;5046501;28;19911;-66
2021/10/02 08:02:50;;;;;;;;;;;;;;;;;;5046595;28;19956;-66
2021/10/02 08:05:16;;;;;;;;;;;;;;;;;;5046531;28;19905;-66
2021/10/02 08:07:42;;;;;;;;;;;;;;;;;;5047848;28;19959;-67
2021/10/02 08:10:08;;;;;;;;;;;;;;;;;;5050253;28;19905;-67
2021/10/02 08:12:33;;;;;;;;;;;;;;;;;;5050260;28;19905;-66
2021/10/02 08:14:59;;;;;;;;;;;;;;;;;;5050039;28;20324;-69
2021/10/02 08:17:26;;;;;;;;;;;;;;;;;;5050139;28;19905;-66
2021/10/02 08:19:55;;;;;;;;;;;;;;;;;;5050107;28;19905;-67
2021/10/02 08:22:21;;;;;;;;;;;;;;;;;;5050105;28;19960;-68
2021/10/02 08:24:47;;;;;;;;;;;;;;;;;;5049813;28;19929;-67
2021/10/02 08:27:13;;;;;;;;;;;;;;;;;;5049814;28;19909;-66
2021/10/02 08:29:38;;;;;;;;;;;;;;;;;;5049778;28;19905;-66
2021/10/02 08:32:04;;;;;;;;;;;;;;;;;;5049745;28;19912;-66
2021/10/02 08:34:30;;;;;;;;;;;;;;;;;;5049987;28;19909;-66
2021/10/02 08:36:56;;;;;;;;;;;;;;;;;;5049939;28;19905;-66
2021/10/02 08:39:22;;;;;;;;;;;;;;;;;;5049813;28;19909;-66
2021/10/02 08:41:53;;;;;;;;;;;;;;;;;;5049735;28;19912;-66
2021/10/02 08:44:19;;;;;;;;;;;;;;;;;;5049519;28;19917;-66
2021/10/02 08:46:46;;;;;;;;;;;;;;;;;;5049599;28;19933;-66
2021/10/02 08:49:12;;;;;;;;;;;;;;;;;;5049799;28;19912;-67
2021/10/02 08:51:38;;;;;;;;;;;;;;;;;;5049436;28;19905;-66
2021/10/02 08:54:04;;;;;;;;;;;;;;;;;;5049445;28;19909;-70
2021/10/02 08:56:32;;;;;;;;;;;;;;;;;;5049779;28;19905;-66
2021/10/02 08:58:58;;;;;;;;;;;;;;;;;;5049130;28;19935;-69
2021/10/02 09:01:24;;;;;;;;;;;;;;;;;;5049202;28;19968;-67
2021/10/02 09:03:50;;;;;;;;;;;;;;;;;;5049099;28;19905;-69
2021/10/02 09:06:16;;;;;;;;;;;;;;;;;;5048947;28;19905;-67
2021/10/02 09:08:42;;;;;;;;;;;;;;;;;;5048956;28;19909;-67
2021/10/02 09:11:08;;;;;;;;;;;;;;;;;;5049200;28;20362;-67
2021/10/02 09:13:33;;;;;;;;;;;;;;;;;;5048968;28;19909;-68
2021/10/02 09:15:59;;;;;;;;;;;;;;;;;;5049070;28;19905;-67
2021/10/02 09:18:25;;;;;;;;;;;;;;;;;;5048994;28;19905;-69
2021/10/02 09:20:51;;;;;;;;;;;;;;;;;;5048479;28;19905;-67
2021/10/02 09:23:17;;;;;;;;;;;;;;;;;;5048888;28;19909;-67
2021/10/02 09:25:43;;;;;;;;;;;;;;;;;;5048759;28;20450;-68
2021/10/02 09:28:09;;;;;;;;;;;;;;;;;;5048927;28;19905;-67
2021/10/02 09:30:35;;;;;;;;;;;;;;;;;;5048879;28;19905;-70
2021/10/02 09:33:01;;;;;;;;;;;;;;;;;;5048497;28;19916;-68
2021/10/02 09:35:27;;;;;;;;;;;;;;;;;;5048647;28;19963;-67
2021/10/02 09:37:53;;;;;;;;;;;;;;;;;;5048447;28;19928;-70
2021/10/02 09:40:19;;;;;;;;;;;;;;;;;;5048413;28;19912;-67
2021/10/02 09:42:45;;;;;;;;;;;;;;;;;;5048086;28;20004;-68
2021/10/02 09:45:11;;;;;;;;;;;;;;;;;;5048512;28;19905;-67
2021/10/02 09:47:37;;;;;;;;;;;;;;;;;;5048189;28;19916;-68
2021/10/02 09:50:03;;;;;;;;;;;;;;;;;;5048152;28;19905;-67
2021/10/02 09:52:29;;;;;;;;;;;;;;;;;;5047995;28;19912;-68
2021/10/02 09:54:55;;;;;;;;;;;;;;;;;;5048125;28;19923;-67
2021/10/02 09:57:22;;;;;;;;;;;;;;;;;;5048390;28;20112;-67
2021/10/02 09:59:50;;;;;;;;;;;;;;;;;;5048093;28;19986;-69
2021/10/02 10:02:16;;;;;;;;;;;;;;;;;;5047977;28;19951;-68
2021/10/02 10:04:42;;;;;;;;;;;;;;;;;;5048027;28;19905;-68
2021/10/02 10:07:08;;;;;;;;;;;;;;;;;;5047894;28;19905;-68
2021/10/02 10:09:34;;;;;;;;;;;;;;;;;;5047703;28;19991;-67
2021/10/02 10:12:00;;;;;;;;;;;;;;;;;;5047552;28;19905;-68
2021/10/02 10:14:26;;;;;;;;;;;;;;;;;;5047635;28;19916;-68
2021/10/02 10:16:51;;;;;;;;;;;;;;;;;;5046442;28;19945;-69
2021/10/02 10:19:17;;;;;;;;;;;;;;;;;;5047832;28;19908;-67
2021/10/02 10:21:43;;;;;;;;;;;;;;;;;;5047895;28;19905;-68
2021/10/02 10:24:09;;;;;;;;;;;;;;;;;;5047516;28;19905;-67
2021/10/02 10:26:35;;;;;;;;;;;;;;;;;;5047780;28;19905;-68
2021/10/02 10:29:01;;;;;;;;;;;;;;;;;;5047623;28;20378;-68
2021/10/02 10:31:27;;;;;;;;;;;;;;;;;;5046930;28;19952;-68
2021/10/02 10:33:53;;;;;;;;;;;;;;;;;;5047724;28;19916;-67
2021/10/02 10:36:19;;;;;;;;;;;;;;;;;;5047725;28;19905;-68
2021/10/02 10:38:45;;;;;;;;;;;;;;;;;;5047407;28;19911;-69
2021/10/02 10:41:11;;;;;;;;;;;;;;;;;;5047580;28;19935;-68
2021/10/02 10:43:37;;;;;;;;;;;;;;;;;;5047148;28;19921;-68
2021/10/02 10:46:03;;;;;;;;;;;;;;;;;;5047210;28;19905;-68
2021/10/02 10:48:29;;;;;;;;;;;;;;;;;;5047041;28;19968;-69
2021/10/02 10:50:55;;;;;;;;;;;;;;;;;;5047089;28;19905;-68
2021/10/02 10:53:21;;;;;;;;;;;;;;;;;;5045621;28;20443;-68
2021/10/02 10:55:46;;;;;;;;;;;;;;;;;;5047024;28;19912;-68
2021/10/02 10:58:12;;;;;;;;;;;;;;;;;;5046913;28;19908;-68
2021/10/02 11:00:38;;;;;;;;;;;;;;;;;;5047006;28;19905;-67
2021/10/02 11:03:04;;;;;;;;;;;;;;;;;;5047142;28;20282;-69
2021/10/02 11:05:30;;;;;;;;;;;;;;;;;;5046903;28;19940;-67
2021/10/02 11:07:56;;;;;;;;;;;;;;;;;;5047184;28;20272;-67
2021/10/02 11:10:22;;;;;;;;;;;;;;;;;;5046918;28;19964;-68
2021/10/02 11:12:48;;;;;;;;;;;;;;;;;;5045492;28;20355;-68
2021/10/02 11:15:14;;;;;;;;;;;;;;;;;;5046691;28;19905;-67
2021/10/02 11:17:44;;;;;;;;;;;;;;;;;;5046862;28;19912;-69
2021/10/02 11:20:09;;;;;;;;;;;;;;;;;;5046943;28;19920;-68
2021/10/02 11:22:40;;;;;;;;;;;;;;;;;;5046786;28;19940;-68
2021/10/02 11:25:06;;;;;;;;;;;;;;;;;;5046889;28;20341;-68
2021/10/02 11:27:32;;;;;;;;;;;;;;;;;;5046041;28;19905;-67
2021/10/02 11:29:58;;;;;;;;;;;;;;;;;;5045876;28;19905;-68
2021/10/02 11:32:26;;;;;;;;;;;;;;;;;;5046251;28;19905;-67
2021/10/02 11:34:52;;;;;;;;;;;;;;;;;;5046540;28;19955;-67
2021/10/02 11:37:18;;;;;;;;;;;;;;;;;;5046465;28;19905;-67
2021/10/02 11:39:44;;;;;;;;;;;;;;;;;;5046501;28;19905;-67
2021/10/02 11:42:11;;;;;;;;;;;;;;;;;;5046897;28;19905;-68
2021/10/02 11:44:37;;;;;;;;;;;;;;;;;;5050452;28;20378;-68
2021/10/02 11:47:03;;;;;;;;;;;;;;;;;;5050602;28;19976;-66
2021/10/02 11:49:29;;;;;;;;;;;;;;;;;;5050625;28;19963;-67
2021/10/02 11:51:55;;;;;;;;;;;;;;;;;;5050290;28;20354;-69
2021/10/02 11:54:21;;;;;;;;;;;;;;;;;;5050139;28;19909;-67
2021/10/02 11:56:47;;;;;;;;;;;;;;;;;;5050146;28;20426;-67
2021/10/02 11:59:13;;;;;;;;;;;;;;;;;;5050295;28;19956;-68
2021/10/02 12:01:38;;;;;;;;;;;;;;;;;;5050333;28;19905;-69
2021/10/02 12:04:04;;;;;;;;;;;;;;;;;;5050215;28;19905;-70
2021/10/02 12:06:30;;;;;;;;;;;;;;;;;;5050236;28;19912;-67
2021/10/02 12:08:58;;;;;;;;;;;;;;;;;;5049981;28;19905;-67
2021/10/02 12:11:24;;;;;;;;;;;;;;;;;;5049972;28;19909;-67
2021/10/02 12:13:50;;;;;;;;;;;;;;;;;;5049907;28;19909;-67
2021/10/02 12:16:16;;;;;;;;;;;;;;;;;;5049602;28;19927;-67
2021/10/02 12:18:42;;;;;;;;;;;;;;;;;;5049587;28;19988;-68
2021/10/02 12:21:08;;;;;;;;;;;;;;;;;;5049809;28;19905;-68
2021/10/02 12:23:34;;;;;;;;;;;;;;;;;;5037923;28;19918;-76
2021/10/02 12:26:00;;;;;;;;;;;;;;;;;;5037411;28;19992;-71
2021/10/02 12:28:26;;;;;;;;;;;;;;;;;;5036861;28;19909;-79
2021/10/02 12:30:52;;;;;;;;;;;;;;;;;;5041374;28;19912;-75
2021/10/02 12:33:18;;;;;;;;;;;;;;;;;;5048971;28;19909;-68
2021/10/02 12:35:45;;;;;;;;;;;;;;;;;;5048854;28;19905;-67
2021/10/02 12:38:11;;;;;;;;;;;;;;;;;;5030681;28;19916;-67
2021/10/02 12:40:37;;;;;;;;;;;;;;;;;;5036377;28;19913;-68
2021/10/02 12:43:03;;;;;;;;;;;;;;;;;;5048780;28;19948;-69
2021/10/02 12:45:34;;;;;;;;;;;;;;;;;;5049018;28;19912;-67
2021/10/02 12:48:00;;;;;;;;;;;;;;;;;;5048969;28;19955;-67
2021/10/02 12:50:26;;;;;;;;;;;;;;;;;;5041142;28;19909;-67
2021/10/02 12:52:52;;;;;;;;;;;;;;;;;;5028604;28;19915;-73
2021/10/02 12:55:18;;;;;;;;;;;;;;;;;;5034635;28;19909;-68
2021/10/02 12:57:43;;;;;;;;;;;;;;;;;;5048225;28;19940;-70
2021/10/02 13:00:09;;;;;;;;;;;;;;;;;;5032496;28;19917;-70
2021/10/02 13:02:35;;;;;;;;;;;;;;;;;;5028850;28;19973;-67
2021/10/02 13:05:01;;;;;;;;;;;;;;;;;;5028746;28;19906;-69
2021/10/02 13:07:27;;;;;;;;;;;;;;;;;;5032923;28;19973;-68
2021/10/02 13:09:53;;;;;;;;;;;;;;;;;;5048588;28;19912;-71
2021/10/02 13:12:19;;;;;;;;;;;;;;;;;;5048317;28;19905;-68
2021/10/02 13:14:46;;;;;;;;;;;;;;;;;;5047353;28;19909;-71
2021/10/02 13:17:12;;;;;;;;;;;;;;;;;;5031161;28;19906;-69
2021/10/02 13:19:38;;;;;;;;;;;;;;;;;;5027744;28;20024;-72
2021/10/02 13:22:04;;;;;;;;;;;;;;;;;;5027741;28;19928;-72
2021/10/02 13:24:30;;;;;;;;;;;;;;;;;;5027864;28;19953;-71
2021/10/02 13:27:01;;;;;;;;;;;;;;;;;;5027877;28;19905;-73
2021/10/02 13:29:27;;;;;;;;;;;;;;;;;;5027736;28;19996;-69
2021/10/02 13:31:53;;;;;;;;;;;;;;;;;;5027752;28;19905;-69
2021/10/02 13:34:19;;;;;;;;;;;;;;;;;;5025501;28;19910;-69
2021/10/02 13:36:45;;;;;;;;;;;;;;;;;;5026696;28;19912;-71
2021/10/02 13:39:11;;;;;;;;;;;;;;;;;;5027506;28;19944;-71
2021/10/02 13:41:39;;;;;;;;;;;;;;;;;;5026416;28;19921;-74
2021/10/02 13:44:05;;;;;;;;;;;;;;;;;;5023977;28;19917;-72
2021/10/02 13:46:31;;;;;;;;;;;;;;;;;;5026905;28;19912;-67
2021/10/02 13:48:57;;;;;;;;;;;;;;;;;;5026531;28;20020;-67
2021/10/02 13:51:23;;;;;;;;;;;;;;;;;;5039854;28;20023;-69
2021/10/02 13:53:49;;;;;;;;;;;;;;;;;;5043823;28;20354;-75
2021/10/02 13:56:15;;;;;;;;;;;;;;;;;;5044159;28;20354;-68
2021/10/02 13:58:41;;;;;;;;;;;;;;;;;;5027786;28;19965;-71
2021/10/02 14:01:07;;;;;;;;;;;;;;;;;;5025886;28;19905;-70
2021/10/02 14:03:33;;;;;;;;;;;;;;;;;;5046896;28;19905;-69
2021/10/02 14:05:59;;;;;;;;;;;;;;;;;;5048039;28;20306;-70
2021/10/02 14:08:25;;;;;;;;;;;;;;;;;;5047734;28;19981;-69
2021/10/02 14:10:51;;;;;;;;;;;;;;;;;;5047801;28;19912;-72
2021/10/02 14:13:17;;;;;;;;;;;;;;;;;;5046426;28;19999;-69
2021/10/02 14:15:45;;;;;;;;;;;;;;;;;;5047896;28;20344;-69
2021/10/02 14:18:11;;;;;;;;;;;;;;;;;;5047523;28;19905;-69
2021/10/02 14:20:37;;;;;;;;;;;;;;;;;;5035502;28;19979;-72
2021/10/02 14:23:03;;;;;;;;;;;;;;;;;;5026901;28;19912;-67
2021/10/02 14:25:29;;;;;;;;;;;;;;;;;;5031381;28;19905;-69
2021/10/02 14:27:55;;;;;;;;;;;;;;;;;;5025993;28;19905;-68
2021/10/02 14:30:23;;;;;;;;;;;;;;;;;;5027287;28;19905;-68
2021/10/02 14:32:49;;;;;;;;;;;;;;;;;;5026251;28;19914;-70
2021/10/02 14:35:15;;;;;;;;;;;;;;;;;;5026653;28;19905;-69
2021/10/02 14:37:41;;;;;;;;;;;;;;;;;;5025505;28;19912;-67
2021/10/02 14:40:07;;;;;;;;;;;;;;;;;;5026450;28;19905;-67
2021/10/02 14:42:32;;;;;;;;;;;;;;;;;;5026116;28;19951;-67
2021/10/02 14:44:58;;;;;;;;;;;;;;;;;;5026400;28;19916;-67
2021/10/02 14:47:24;;;;;;;;;;;;;;;;;;5026483;28;19920;-68
2021/10/02 14:49:51;;;;;;;;;;;;;;;;;;5026669;28;19905;-69
2021/10/02 14:52:17;;;;;;;;;;;;;;;;;;5026296;28;19905;-66
2021/10/02 14:54:43;;;;;;;;;;;;;;;;;;5025643;28;19910;-67
2021/10/02 14:57:09;;;;;;;;;;;;;;;;;;5026317;28;19912;-67
2021/10/02 14:59:35;;;;;;;;;;;;;;;;;;5026167;28;19905;-66
2021/10/02 15:02:01;;;;;;;;;;;;;;;;;;5025277;28;19905;-66
2021/10/02 15:04:27;;;;;;;;;;;;;;;;;;5026708;28;20375;-70
2021/10/02 15:06:53;;;;;;;;;;;;;;;;;;5026726;28;20292;-67
2021/10/02 15:09:19;;;;;;;;;;;;;;;;;;5026993;28;19905;-66
2021/10/02 15:11:46;;;;;;;;;;;;;;;;;;5026938;28;19905;-67
2021/10/02 15:14:12;;;;;;;;;;;;;;;;;;5026604;28;19932;-67
2021/10/02 15:16:38;;;;;;;;;;;;;;;;;;5026139;28;19909;-71
2021/10/02 15:19:03;;;;;;;;;;;;;;;;;;5026331;28;19905;-70
2021/10/02 15:21:29;;;;;;;;;;;;;;;;;;5025549;28;19909;-72
2021/10/02 15:23:55;;;;;;;;;;;;;;;;;;5022137;28;19912;-70
2021/10/02 15:26:21;;;;;;;;;;;;;;;;;;5026569;28;20283;-67
2021/10/02 15:28:47;;;;;;;;;;;;;;;;;;5026859;28;19948;-66
2021/10/02 15:31:13;;;;;;;;;;;;;;;;;;5027015;28;19993;-67
2021/10/02 15:33:39;;;;;;;;;;;;;;;;;;5026464;28;19963;-68
2021/10/02 15:36:05;;;;;;;;;;;;;;;;;;5026630;28;19912;-70
2021/10/02 15:38:31;;;;;;;;;;;;;;;;;;5025152;28;19905;-67
2021/10/02 15:40:57;;;;;;;;;;;;;;;;;;5026362;28;19970;-66
2021/10/02 15:43:23;;;;;;;;;;;;;;;;;;5026196;28;19917;-66
2021/10/02 15:45:49;;;;;;;;;;;;;;;;;;5026584;28;19913;-67
2021/10/02 15:48:15;;;;;;;;;;;;;;;;;;5026455;28;19959;-67
2021/10/02 15:50:41;;;;;;;;;;;;;;;;;;5026477;28;19940;-69
2021/10/02 15:53:07;;;;;;;;;;;;;;;;;;5024939;28;20360;-67
2021/10/02 15:55:34;;;;;;;;;;;;;;;;;;5026213;28;19956;-69
2021/10/02 15:58:00;;;;;;;;;;;;;;;;;;5026222;28;19995;-67
2021/10/02 16:00:26;;;;;;;;;;;;;;;;;;5026419;28;19905;-66
2021/10/02 16:02:52;;;;;;;;;;;;;;;;;;5026178;28;19906;-67
2021/10/02 16:05:18;;;;;;;;;;;;;;;;;;5026361;28;19909;-66
2021/10/02 16:07:44;;;;;;;;;;;;;;;;;;5026342;28;19912;-66
2021/10/02 16:10:10;;;;;;;;;;;;;;;;;;5026062;28;19969;-67
2021/10/02 16:12:35;;;;;;;;;;;;;;;;;;5026339;28;20315;-69
2021/10/02 16:15:01;;;;;;;;;;;;;;;;;;5026015;28;19906;-72
2021/10/02 16:17:27;;;;;;;;;;;;;;;;;;5026073;28;20386;-70
2021/10/02 16:19:53;;;;;;;;;;;;;;;;;;5026367;28;20055;-66
2021/10/02 16:22:19;;;;;;;;;;;;;;;;;;5025934;28;19912;-67
2021/10/02 16:24:45;;;;;;;;;;;;;;;;;;5026269;28;19912;-67
2021/10/02 16:27:11;;;;;;;;;;;;;;;;;;5026462;28;20282;-68
2021/10/02 16:29:37;;;;;;;;;;;;;;;;;;5027329;28;19916;-67
2021/10/02 16:32:03;;;;;;;;;;;;;;;;;;5028609;28;19953;-70
2021/10/02 16:34:29;;;;;;;;;;;;;;;;;;5030006;28;19921;-67
2021/10/02 16:36:55;;;;;;;;;;;;;;;;;;5030070;28;19913;-68
2021/10/02 16:39:21;;;;;;;;;;;;;;;;;;5029989;28;19906;-68
2021/10/02 16:41:47;;;;;;;;;;;;;;;;;;5029853;28;19905;-71
2021/10/02 16:44:13;;;;;;;;;;;;;;;;;;5029429;28;19928;-67
2021/10/02 16:46:39;;;;;;;;;;;;;;;;;;5029847;28;19905;-68
2021/10/02 16:49:05;;;;;;;;;;;;;;;;;;5030056;28;19928;-67
2021/10/02 16:51:31;;;;;;;;;;;;;;;;;;5029684;28;19906;-68
2021/10/02 16:54:18;;;;;;;;;;;;;;;;;;5030681;28;19909;-67
2021/10/02 16:56:43;;;;;;;;;;;;;;;;;;5029180;28;19955;-67
2021/10/02 16:59:09;;;;;;;;;;;;;;;;;;5029603;28;20280;-67
2021/10/02 17:01:35;;;;;;;;;;;;;;;;;;5029520;28;19913;-67
2021/10/02 17:04:01;;;;;;;;;;;;;;;;;;5029182;28;20423;-68
2021/10/02 17:06:28;;;;;;;;;;;;;;;;;;5029426;28;19929;-68
2021/10/02 17:08:54;;;;;;;;;;;;;;;;;;5029456;28;19905;-67
2021/10/02 17:11:20;;;;;;;;;;;;;;;;;;5029246;28;19928;-67
2021/10/02 17:13:46;;;;;;;;;;;;;;;;;;5029194;28;19963;-67
2021/10/02 17:16:12;;;;;;;;;;;;;;;;;;5029341;28;19909;-68
2021/10/02 17:18:38;;;;;;;;;;;;;;;;;;5027566;28;19911;-65
2021/10/02 17:21:04;;;;;;;;;;;;;;;;;;5032275;28;19920;-66
2021/10/02 17:23:30;;;;;;;;;;;;;;;;;;5029140;28;19905;-66
2021/10/02 17:25:58;;;;;;;;;;;;;;;;;;5029076;28;19905;-66
2021/10/02 17:28:24;;;;;;;;;;;;;;;;;;5029264;28;19928;-65
2021/10/02 17:30:50;;;;;;;;;;;;;;;;;;5028975;28;19976;-66
2021/10/02 17:33:16;;;;;;;;;;;;;;;;;;5028961;28;19960;-69